sensor_id;sensor_type;location;lat;lon;timestamp;P1;durP1;ratioP1;P2;durP2;ratioP2
44452;SDS011;30155;52.164;21.236;2022-08-05T00:02:50;7.25;;;5.33;;
44452;SDS011;30155;52.164;21.236;2022-08-05T00:07:43;7.65;;;5.83;;
44452;SDS011;30155;52.164;21.236;2022-08-05T00:12:35;7.28;;;5.90;;
44452;SDS011;30155;52.164;21.236;2022-08-05T00:17:27;10.32;;;5.67;;
44452;SDS011;30155;52.164;21.236;2022-08-05T00:22:19;6.22;;;5.47;;
44452;SDS011;30155;52.164;21.236;2022-08-05T00:27:12;6.87;;;6.22;;
44452;SDS011;30155;52.164;21.236;2022-08-05T00:32:04;6.12;;;5.62;;
44452;SDS011;30155;52.164;21.236;2022-08-05T00:36:59;6.20;;;5.42;;
44452;SDS011;30155;52.164;21.236;2022-08-05T00:41:51;8.80;;;5.62;;
44452;SDS011;30155;52.164;21.236;2022-08-05T00:46:43;8.18;;;5.90;;
44452;SDS011;30155;52.164;21.236;2022-08-05T00:51:38;6.35;;;5.75;;
44452;SDS011;30155;52.164;21.236;2022-08-05T00:56:31;6.85;;;5.87;;
44452;SDS011;30155;52.164;21.236;2022-08-05T01:01:26;8.58;;;5.60;;
44452;SDS011;30155;52.164;21.236;2022-08-05T01:06:20;5.92;;;5.37;;
44452;SDS011;30155;52.164;21.236;2022-08-05T01:11:23;6.58;;;6.00;;
44452;SDS011;30155;52.164;21.236;2022-08-05T01:32:15;5.83;;;4.92;;
44452;SDS011;30155;52.164;21.236;2022-08-05T01:37:13;6.60;;;5.62;;
44452;SDS011;30155;52.164;21.236;2022-08-05T01:42:12;7.83;;;5.12;;
44452;SDS011;30155;52.164;21.236;2022-08-05T01:47:07;5.67;;;5.17;;
44452;SDS011;30155;52.164;21.236;2022-08-05T01:52:03;6.65;;;5.70;;
44452;SDS011;30155;52.164;21.236;2022-08-05T01:56:56;5.70;;;5.20;;
44452;SDS011;30155;52.164;21.236;2022-08-05T02:01:53;6.40;;;5.80;;
44452;SDS011;30155;52.164;21.236;2022-08-05T02:06:52;5.65;;;5.12;;
44452;SDS011;30155;52.164;21.236;2022-08-05T02:11:49;6.03;;;5.30;;
44452;SDS011;30155;52.164;21.236;2022-08-05T02:16:47;8.35;;;6.37;;
44452;SDS011;30155;52.164;21.236;2022-08-05T02:21:47;6.25;;;5.65;;
44452;SDS011;30155;52.164;21.236;2022-08-05T02:26:53;8.38;;;6.47;;
44452;SDS011;30155;52.164;21.236;2022-08-05T02:31:45;6.67;;;5.35;;
44452;SDS011;30155;52.164;21.236;2022-08-05T02:36:47;7.42;;;6.10;;
44452;SDS011;30155;52.164;21.236;2022-08-05T02:46:30;6.28;;;5.78;;
44452;SDS011;30155;52.164;21.236;2022-08-05T02:51:28;6.03;;;5.53;;
44452;SDS011;30155;52.164;21.236;2022-08-05T02:56:22;6.78;;;5.35;;
44452;SDS011;30155;52.164;21.236;2022-08-05T03:01:20;6.22;;;5.62;;
44452;SDS011;30155;52.164;21.236;2022-08-05T03:06:14;6.42;;;5.80;;
44452;SDS011;30155;52.164;21.236;2022-08-05T03:11:25;6.22;;;5.58;;
44452;SDS011;30155;52.164;21.236;2022-08-05T03:16:16;6.47;;;5.80;;
44452;SDS011;30155;52.164;21.236;2022-08-05T03:21:14;19.80;;;6.42;;
44452;SDS011;30155;52.164;21.236;2022-08-05T03:26:04;7.25;;;6.05;;
44452;SDS011;30155;52.164;21.236;2022-08-05T03:31:01;6.90;;;6.12;;
44452;SDS011;30155;52.164;21.236;2022-08-05T03:35:52;9.13;;;6.97;;
44452;SDS011;30155;52.164;21.236;2022-08-05T03:40:50;6.20;;;5.70;;
44452;SDS011;30155;52.164;21.236;2022-08-05T03:45:43;6.70;;;6.10;;
44452;SDS011;30155;52.164;21.236;2022-08-05T03:50:52;7.60;;;6.42;;
44452;SDS011;30155;52.164;21.236;2022-08-05T03:56:04;6.12;;;5.62;;
44452;SDS011;30155;52.164;21.236;2022-08-05T04:01:06;6.53;;;5.92;;
44452;SDS011;30155;52.164;21.236;2022-08-05T04:06:00;5.72;;;5.17;;
44452;SDS011;30155;52.164;21.236;2022-08-05T04:10:56;10.75;;;6.72;;
44452;SDS011;30155;52.164;21.236;2022-08-05T04:16:03;7.20;;;5.80;;
44452;SDS011;30155;52.164;21.236;2022-08-05T04:20:53;8.55;;;6.97;;
44452;SDS011;30155;52.164;21.236;2022-08-05T04:25:49;6.60;;;6.10;;
44452;SDS011;30155;52.164;21.236;2022-08-05T04:30:41;7.35;;;6.08;;
44452;SDS011;30155;52.164;21.236;2022-08-05T04:35:34;6.40;;;5.85;;
44452;SDS011;30155;52.164;21.236;2022-08-05T04:40:26;6.50;;;5.90;;
44452;SDS011;30155;52.164;21.236;2022-08-05T04:45:20;5.90;;;5.40;;
44452;SDS011;30155;52.164;21.236;2022-08-05T04:50:16;7.87;;;6.28;;
44452;SDS011;30155;52.164;21.236;2022-08-05T04:55:09;6.80;;;6.12;;
44452;SDS011;30155;52.164;21.236;2022-08-05T05:00:09;9.55;;;6.40;;
44452;SDS011;30155;52.164;21.236;2022-08-05T05:10:18;6.47;;;5.78;;
44452;SDS011;30155;52.164;21.236;2022-08-05T05:15:19;7.22;;;5.60;;
44452;SDS011;30155;52.164;21.236;2022-08-05T05:20:12;5.95;;;5.50;;
44452;SDS011;30155;52.164;21.236;2022-08-05T05:25:08;5.75;;;5.25;;
44452;SDS011;30155;52.164;21.236;2022-08-05T05:30:06;6.15;;;5.60;;
44452;SDS011;30155;52.164;21.236;2022-08-05T05:35:14;6.60;;;6.08;;
44452;SDS011;30155;52.164;21.236;2022-08-05T05:40:13;14.05;;;7.10;;
44452;SDS011;30155;52.164;21.236;2022-08-05T05:45:15;6.40;;;5.75;;
44452;SDS011;30155;52.164;21.236;2022-08-05T05:50:19;6.37;;;5.30;;
44452;SDS011;30155;52.164;21.236;2022-08-05T05:55:23;8.68;;;5.75;;
44452;SDS011;30155;52.164;21.236;2022-08-05T06:00:17;5.67;;;5.17;;
44452;SDS011;30155;52.164;21.236;2022-08-05T06:05:11;4.85;;;4.55;;
44452;SDS011;30155;52.164;21.236;2022-08-05T06:10:06;11.15;;;5.42;;
44452;SDS011;30155;52.164;21.236;2022-08-05T06:15:10;4.70;;;4.25;;
44452;SDS011;30155;52.164;21.236;2022-08-05T06:20:15;4.50;;;4.10;;
44452;SDS011;30155;52.164;21.236;2022-08-05T06:25:30;5.55;;;4.15;;
44452;SDS011;30155;52.164;21.236;2022-08-05T06:30:46;5.45;;;3.55;;
44452;SDS011;30155;52.164;21.236;2022-08-05T06:35:38;3.87;;;3.52;;
44452;SDS011;30155;52.164;21.236;2022-08-05T06:40:37;4.25;;;3.37;;
44452;SDS011;30155;52.164;21.236;2022-08-05T06:45:33;16.57;;;4.92;;
44452;SDS011;30155;52.164;21.236;2022-08-05T06:50:29;4.20;;;3.90;;
44452;SDS011;30155;52.164;21.236;2022-08-05T07:02:11;3.98;;;3.58;;
44452;SDS011;30155;52.164;21.236;2022-08-05T07:18:20;3.95;;;3.60;;
44452;SDS011;30155;52.164;21.236;2022-08-05T07:23:18;3.27;;;2.90;;
44452;SDS011;30155;52.164;21.236;2022-08-05T07:28:34;3.47;;;3.27;;
44452;SDS011;30155;52.164;21.236;2022-08-05T07:38:36;3.00;;;2.80;;
44452;SDS011;30155;52.164;21.236;2022-08-05T07:48:53;3.37;;;2.67;;
44452;SDS011;30155;52.164;21.236;2022-08-05T07:53:58;2.70;;;2.45;;
44452;SDS011;30155;52.164;21.236;2022-08-05T08:21:25;4.00;;;3.22;;
44452;SDS011;30155;52.164;21.236;2022-08-05T09:24:12;3.20;;;2.80;;
44452;SDS011;30155;52.164;21.236;2022-08-05T09:29:09;3.95;;;2.72;;
44452;SDS011;30155;52.164;21.236;2022-08-05T09:39:55;4.12;;;3.08;;
44452;SDS011;30155;52.164;21.236;2022-08-05T09:50:39;3.12;;;2.92;;
44452;SDS011;30155;52.164;21.236;2022-08-05T10:01:40;4.90;;;3.27;;
44452;SDS011;30155;52.164;21.236;2022-08-05T10:06:33;2.90;;;2.70;;
44452;SDS011;30155;52.164;21.236;2022-08-05T10:11:30;3.70;;;3.40;;
44452;SDS011;30155;52.164;21.236;2022-08-05T10:16:28;2.90;;;2.70;;
44452;SDS011;30155;52.164;21.236;2022-08-05T10:21:24;3.08;;;2.87;;
44452;SDS011;30155;52.164;21.236;2022-08-05T10:31:45;6.42;;;3.17;;
44452;SDS011;30155;52.164;21.236;2022-08-05T10:36:38;3.50;;;2.87;;
44452;SDS011;30155;52.164;21.236;2022-08-05T10:41:42;4.37;;;3.05;;
44452;SDS011;30155;52.164;21.236;2022-08-05T10:52:05;4.47;;;2.90;;
44452;SDS011;30155;52.164;21.236;2022-08-05T11:02:13;3.08;;;2.77;;
44452;SDS011;30155;52.164;21.236;2022-08-05T11:07:06;3.40;;;2.65;;
44452;SDS011;30155;52.164;21.236;2022-08-05T11:17:33;2.98;;;2.77;;
44452;SDS011;30155;52.164;21.236;2022-08-05T11:22:48;3.42;;;3.05;;
44452;SDS011;30155;52.164;21.236;2022-08-05T11:33:33;3.52;;;2.90;;
44452;SDS011;30155;52.164;21.236;2022-08-05T11:48:58;2.98;;;2.77;;
44452;SDS011;30155;52.164;21.236;2022-08-05T11:59:35;4.17;;;3.85;;
44452;SDS011;30155;52.164;21.236;2022-08-05T12:04:54;5.37;;;3.60;;
44452;SDS011;30155;52.164;21.236;2022-08-05T12:09:47;5.22;;;3.17;;
44452;SDS011;30155;52.164;21.236;2022-08-05T12:20:10;3.52;;;3.08;;
44452;SDS011;30155;52.164;21.236;2022-08-05T12:25:07;5.50;;;3.92;;
44452;SDS011;30155;52.164;21.236;2022-08-05T12:35:02;3.52;;;3.22;;
44452;SDS011;30155;52.164;21.236;2022-08-05T12:39:56;3.70;;;3.42;;
44452;SDS011;30155;52.164;21.236;2022-08-05T12:44:59;3.87;;;3.58;;
44452;SDS011;30155;52.164;21.236;2022-08-05T12:50:10;3.85;;;3.35;;
44452;SDS011;30155;52.164;21.236;2022-08-05T12:55:21;3.77;;;3.47;;
44452;SDS011;30155;52.164;21.236;2022-08-05T13:00:26;4.30;;;3.58;;
44452;SDS011;30155;52.164;21.236;2022-08-05T13:10:24;4.55;;;3.35;;
44452;SDS011;30155;52.164;21.236;2022-08-05T13:15:22;5.00;;;3.77;;
44452;SDS011;30155;52.164;21.236;2022-08-05T13:20:33;4.17;;;3.87;;
44452;SDS011;30155;52.164;21.236;2022-08-05T13:25:36;4.75;;;4.17;;
44452;SDS011;30155;52.164;21.236;2022-08-05T13:30:34;4.70;;;3.70;;
44452;SDS011;30155;52.164;21.236;2022-08-05T13:35:27;4.47;;;4.08;;
44452;SDS011;30155;52.164;21.236;2022-08-05T13:40:20;4.47;;;4.08;;
44452;SDS011;30155;52.164;21.236;2022-08-05T13:45:14;4.15;;;3.75;;
44452;SDS011;30155;52.164;21.236;2022-08-05T13:50:06;5.17;;;3.90;;
44452;SDS011;30155;52.164;21.236;2022-08-05T13:55:09;4.62;;;4.22;;
44452;SDS011;30155;52.164;21.236;2022-08-05T14:00:13;3.95;;;3.65;;
44452;SDS011;30155;52.164;21.236;2022-08-05T14:05:07;4.85;;;4.20;;
44452;SDS011;30155;52.164;21.236;2022-08-05T14:15:55;4.60;;;4.30;;
44452;SDS011;30155;52.164;21.236;2022-08-05T14:21:08;4.72;;;4.30;;
44452;SDS011;30155;52.164;21.236;2022-08-05T14:37:24;4.72;;;4.33;;
44452;SDS011;30155;52.164;21.236;2022-08-05T14:54:32;5.12;;;4.65;;
44452;SDS011;30155;52.164;21.236;2022-08-05T14:59:31;5.37;;;4.55;;
44452;SDS011;30155;52.164;21.236;2022-08-05T15:10:27;4.58;;;4.30;;
44452;SDS011;30155;52.164;21.236;2022-08-05T15:16:20;5.10;;;4.70;;
44452;SDS011;30155;52.164;21.236;2022-08-05T15:21:13;15.28;;;5.65;;
44452;SDS011;30155;52.164;21.236;2022-08-05T15:26:22;4.42;;;4.08;;
44452;SDS011;30155;52.164;21.236;2022-08-05T15:37:18;6.58;;;4.80;;
44452;SDS011;30155;52.164;21.236;2022-08-05T15:42:36;6.78;;;5.22;;
44452;SDS011;30155;52.164;21.236;2022-08-05T15:47:29;7.70;;;4.95;;
44452;SDS011;30155;52.164;21.236;2022-08-05T15:52:36;7.87;;;5.35;;
44452;SDS011;30155;52.164;21.236;2022-08-05T15:57:35;5.95;;;4.42;;
44452;SDS011;30155;52.164;21.236;2022-08-05T16:02:40;4.60;;;4.30;;
44452;SDS011;30155;52.164;21.236;2022-08-05T16:07:43;5.37;;;4.87;;
44452;SDS011;30155;52.164;21.236;2022-08-05T16:13:16;5.60;;;5.10;;
44452;SDS011;30155;52.164;21.236;2022-08-05T16:39:00;6.58;;;4.42;;
44452;SDS011;30155;52.164;21.236;2022-08-05T16:55:36;5.50;;;4.85;;
44452;SDS011;30155;52.164;21.236;2022-08-05T17:11:13;7.10;;;5.33;;
44452;SDS011;30155;52.164;21.236;2022-08-05T17:27:53;7.42;;;6.12;;
44452;SDS011;30155;52.164;21.236;2022-08-05T17:50:58;19.25;;;6.42;;
44452;SDS011;30155;52.164;21.236;2022-08-05T17:55:59;11.22;;;7.37;;
44452;SDS011;30155;52.164;21.236;2022-08-05T18:08:02;7.17;;;5.35;;
44452;SDS011;30155;52.164;21.236;2022-08-05T18:31:30;21.45;;;11.38;;
44452;SDS011;30155;52.164;21.236;2022-08-05T18:37:05;22.85;;;14.50;;
44452;SDS011;30155;52.164;21.236;2022-08-05T18:53:38;21.05;;;11.80;;
44452;SDS011;30155;52.164;21.236;2022-08-05T18:58:32;23.83;;;11.97;;
44452;SDS011;30155;52.164;21.236;2022-08-05T19:03:31;17.65;;;11.00;;
44452;SDS011;30155;52.164;21.236;2022-08-05T22:36:00;13.05;;;11.75;;
44452;SDS011;30155;52.164;21.236;2022-08-05T22:40:57;14.55;;;13.25;;
44452;SDS011;30155;52.164;21.236;2022-08-05T22:51:21;12.43;;;11.00;;
44452;SDS011;30155;52.164;21.236;2022-08-05T22:56:14;13.83;;;11.28;;
44452;SDS011;30155;52.164;21.236;2022-08-05T23:01:06;12.93;;;11.68;;
44452;SDS011;30155;52.164;21.236;2022-08-05T23:05:58;13.13;;;11.97;;
44452;SDS011;30155;52.164;21.236;2022-08-05T23:10:51;12.53;;;11.35;;
44452;SDS011;30155;52.164;21.236;2022-08-05T23:15:43;13.53;;;12.23;;
44452;SDS011;30155;52.164;21.236;2022-08-05T23:20:36;11.95;;;10.85;;
44452;SDS011;30155;52.164;21.236;2022-08-05T23:25:28;13.13;;;11.70;;
44452;SDS011;30155;52.164;21.236;2022-08-05T23:30:24;12.25;;;10.75;;
44452;SDS011;30155;52.164;21.236;2022-08-05T23:35:16;13.08;;;11.65;;
44452;SDS011;30155;52.164;21.236;2022-08-05T23:40:09;13.05;;;11.85;;
44452;SDS011;30155;52.164;21.236;2022-08-05T23:45:05;14.38;;;12.25;;
44452;SDS011;30155;52.164;21.236;2022-08-05T23:49:59;14.60;;;11.10;;
44452;SDS011;30155;52.164;21.236;2022-08-05T23:54:52;13.28;;;11.75;;
44452;SDS011;30155;52.164;21.236;2022-08-05T23:59:45;12.50;;;11.30;;
